Hovedside
METAR-TAF:

METAR-TAF

Lufthavner :

Kronoby lufthavn

Karleby, Finland

breddegrad: 63-43N, lengdegrad: 023-09E, høyde over havet: 25 m

Gjeldene værobservasjon

Denne rapporten ble laget for 26 minutter siden, klokken 10:20 UTC
Vind 10 kt fra Sør
Temperatur 17°C
Luftfuktighet 77%
Trykk 1000 hPa
Sikt 10 km eller mer
Spredte skyer i en høyde av 3600 ft
Få skyer i en høyde av 4800 ft, Bygeskyer.
torden,

METAR: EFKK 191020Z 18010KT 9999 TS SCT036 FEW048CB 17/13 Q1000 RETSRA

Tid: 13:46 (10:46 UTC)

Varsel

Denne rapporten ble laget for 5 timer og 16 minutter siden, klokken 05:30 UTC
Varsel gyldig fra 19. klokken 06 UTC til 19. klokken 09 UTC
Vind 10 kt fra Sør
Sikt 10 km eller mer
ingen skyer under 1500 m og ingen bygeskyer
Midlertidig
fra 19. klokken 07 UTC til 19. klokken 09 UTC
Få skyer i en høyde av 3000 ft, Bygeskyer.

TAF: EFKK 190530Z 1906/1909 18010KT CAVOK TEMPO 1907/1909 FEW030CB

Værobservasjoner og værvarsel for over 4000 flyplasser (METAR- og TAF-rapporter).

Tilgjengelige stasjoner er representert av de røde og gule prikkene på kartet.

Hold musepekeren over prikken for å se navnet på stasjonen.

Klikk så for å se værobservasjoner og -varsler.

For å forandre kartet kan du klikke på den grønne knappen med svart kryss for å zoome inn, på den grønne knappen med strek for å zoome ut, eller på de grønne pilene for å se tilstøtende kart.


METAR-TAF: